Time;durP1;ratioP1;P1;durP2;ratioP2;P2;SDS_P1;SDS_P2;PMS_P1;PMS_P2;Temp;Humidity;BMP_temperature;BMP_pressure;BME280_temperature;BME280_humidity;BME280_pressure;Samples;Min_cycle;Max_cycle;Signal;HPM_P1;HPM_P2
2024/01/13 00:01:29;;;;;;;59.03;23.60;;;3.90;94.10;;;;;;5108077;28;20426;-50
2024/01/13 00:03:55;;;;;;;62.42;24.00;;;3.90;94.10;;;;;;5090234;28;20028;-50
2024/01/13 00:06:20;;;;;;;56.50;24.30;;;3.90;94.10;;;;;;5107852;28;20420;-51
2024/01/13 00:08:46;;;;;;;55.55;25.63;;;4.00;94.10;;;;;;5107918;28;20077;-51
2024/01/13 00:11:12;;;;;;;52.22;25.33;;;3.90;94.20;;;;;;5107199;28;20384;-50
2024/01/13 00:13:37;;;;;;;60.72;24.60;;;3.90;94.20;;;;;;5090518;28;20046;-50
2024/01/13 00:16:03;;;;;;;44.90;23.58;;;3.90;94.20;;;;;;5108680;28;20078;-50
2024/01/13 00:18:28;;;;;;;57.97;24.05;;;3.90;94.20;;;;;;5107798;28;20032;-50
2024/01/13 00:20:54;;;;;;;58.42;23.60;;;3.90;94.20;;;;;;5089606;28;20027;-50
2024/01/13 00:23:20;;;;;;;55.33;24.27;;;3.90;94.20;;;;;;5107741;28;20028;-50
2024/01/13 00:25:46;;;;;;;51.10;23.40;;;3.90;94.10;;;;;;5107585;28;20091;-50
2024/01/13 00:28:12;;;;;;;47.83;22.52;;;3.80;94.10;;;;;;5089543;28;20355;-50
2024/01/13 00:30:37;;;;;;;58.03;24.13;;;3.80;94.10;;;;;;5107747;28;20056;-50
2024/01/13 00:33:03;;;;;;;56.10;24.52;;;3.80;94.10;;;;;;5108050;28;20072;-50
2024/01/13 00:35:28;;;;;;;58.03;23.63;;;3.80;94.20;;;;;;5107623;28;20032;-50
2024/01/13 00:37:54;;;;;;;41.08;22.85;;;3.80;94.20;;;;;;5107419;28;20036;-50
2024/01/13 00:40:19;;;;;;;47.47;23.38;;;3.80;94.20;;;;;;5107435;28;20032;-50
2024/01/13 00:42:45;;;;;;;55.95;24.35;;;3.80;94.20;;;;;;5089136;28;20032;-50
2024/01/13 00:45:12;;;;;;;47.38;24.00;;;3.80;94.30;;;;;;5107226;28;20028;-50
2024/01/13 00:47:38;;;;;;;46.80;24.27;;;3.70;94.20;;;;;;5107266;28;20032;-50
2024/01/13 00:50:04;;;;;;;52.85;23.55;;;3.70;94.20;;;;;;5106441;28;20024;-50
2024/01/13 00:52:29;;;;;;;57.78;24.08;;;3.70;94.20;;;;;;5089067;28;20120;-50
2024/01/13 00:54:55;;;;;;;47.00;22.98;;;3.80;94.20;;;;;;5107170;28;20024;-50
2024/01/13 00:57:20;;;;;;;42.33;22.58;;;3.80;94.20;;;;;;5088696;28;20104;-50
2024/01/13 00:59:46;;;;;;;48.95;24.48;;;3.70;94.20;;;;;;5106809;28;20409;-50
2024/01/13 01:02:12;;;;;;;52.30;24.40;;;3.70;94.20;;;;;;5106890;28;20040;-50
2024/01/13 01:04:37;;;;;;;54.60;23.42;;;3.70;94.20;;;;;;5106781;28;20035;-50
2024/01/13 01:07:03;;;;;;;49.38;23.02;;;3.70;94.20;;;;;;5106846;28;20483;-50
2024/01/13 01:09:29;;;;;;;49.03;23.73;;;3.70;94.20;;;;;;5106721;28;20035;-50
2024/01/13 01:11:54;;;;;;;54.38;24.25;;;3.70;94.20;;;;;;5106463;28;20472;-50
2024/01/13 01:14:20;;;;;;;49.38;22.88;;;3.70;94.20;;;;;;5106755;28;20103;-50
2024/01/13 01:16:45;;;;;;;50.33;22.10;;;3.60;94.30;;;;;;5106775;28;20024;-50
2024/01/13 01:19:11;;;;;;;45.42;23.23;;;3.60;94.30;;;;;;5088540;28;20088;-50
2024/01/13 01:21:37;;;;;;;48.47;23.33;;;3.60;94.30;;;;;;5106464;28;20035;-50
2024/01/13 01:24:02;;;;;;;46.22;22.67;;;3.60;94.20;;;;;;5088500;28;20074;-50
2024/01/13 01:26:28;;;;;;;41.63;22.77;;;3.60;94.30;;;;;;5106580;28;20034;-51
2024/01/13 01:28:53;;;;;;;49.47;23.88;;;3.60;94.20;;;;;;5106474;28;20032;-50
2024/01/13 01:31:19;;;;;;;43.17;23.10;;;3.60;94.20;;;;;;5106515;28;20032;-50
2024/01/13 01:33:45;;;;;;;45.70;22.20;;;3.60;94.20;;;;;;5106532;28;20047;-50
2024/01/13 01:36:10;;;;;;;42.70;22.42;;;3.60;94.20;;;;;;5106494;28;20027;-50
2024/01/13 01:38:36;;;;;;;40.63;23.05;;;3.60;94.30;;;;;;5106459;28;20034;-50
2024/01/13 01:41:02;;;;;;;45.92;22.67;;;3.60;94.30;;;;;;5106917;28;20020;-50
2024/01/13 01:43:27;;;;;;;48.35;22.25;;;3.50;94.20;;;;;;5107009;28;20051;-50
2024/01/13 01:45:53;;;;;;;50.03;23.55;;;3.50;94.20;;;;;;5106379;28;20032;-50
2024/01/13 01:48:22;;;;;;;46.17;23.13;;;3.60;94.30;;;;;;5106314;28;20051;-50
2024/01/13 01:50:48;;;;;;;36.42;20.73;;;3.50;94.20;;;;;;5088435;28;20507;-50
2024/01/13 01:53:14;;;;;;;38.10;22.50;;;3.50;94.20;;;;;;5106239;28;20050;-50
2024/01/13 01:55:40;;;;;;;39.15;21.80;;;3.60;94.20;;;;;;5088507;28;20471;-50
2024/01/13 01:58:05;;;;;;;34.35;21.98;;;3.60;94.20;;;;;;5106388;28;20033;-50
2024/01/13 02:00:32;;;;;;;44.70;22.25;;;3.50;94.20;;;;;;5088144;28;20028;-50
2024/01/13 02:02:57;;;;;;;39.60;20.95;;;3.50;94.20;;;;;;5090558;28;20055;-50
2024/01/13 02:05:23;;;;;;;40.75;23.48;;;3.50;94.20;;;;;;5110285;28;20039;-50
2024/01/13 02:07:50;;;;;;;42.70;23.42;;;3.60;94.20;;;;;;5110190;28;20400;-50
2024/01/13 02:10:20;;;;;;;38.33;22.25;;;3.50;94.20;;;;;;5092179;28;20028;-50
2024/01/13 02:12:45;;;;;;;39.63;22.48;;;3.50;94.20;;;;;;5110109;28;20028;-51
2024/01/13 02:15:11;;;;;;;44.58;23.40;;;3.50;94.20;;;;;;5110229;28;20062;-50
2024/01/13 02:17:37;;;;;;;44.80;22.85;;;3.40;94.20;;;;;;5110043;28;20024;-50
2024/01/13 02:20:05;;;;;;;39.78;22.45;;;3.40;94.30;;;;;;5110587;28;20031;-50
2024/01/13 02:22:31;;;;;;;39.40;22.10;;;3.40;94.20;;;;;;5110096;28;20103;-50
2024/01/13 02:24:58;;;;;;;40.55;22.27;;;3.40;94.20;;;;;;5109950;28;20055;-50
2024/01/13 02:27:24;;;;;;;43.78;23.23;;;3.40;94.20;;;;;;5109996;28;20043;-50
2024/01/13 02:29:49;;;;;;;37.53;21.52;;;3.50;94.30;;;;;;5092374;28;20035;-51
2024/01/13 02:32:15;;;;;;;39.65;21.70;;;3.40;94.30;;;;;;5110365;28;20036;-50
2024/01/13 02:34:40;;;;;;;38.72;21.15;;;3.40;94.30;;;;;;5074957;28;20036;-51
2024/01/13 02:37:06;;;;;;;42.25;22.95;;;3.40;94.30;;;;;;5109641;28;20031;-50
2024/01/13 02:39:31;;;;;;;40.70;22.83;;;3.40;94.30;;;;;;5109664;28;20020;-50
2024/01/13 02:41:57;;;;;;;41.90;22.50;;;3.40;94.30;;;;;;5109679;28;20078;-50
2024/01/13 02:44:22;;;;;;;40.70;21.33;;;3.40;94.20;;;;;;5109621;28;20027;-50
2024/01/13 02:46:48;;;;;;;40.10;22.50;;;3.40;94.30;;;;;;5091344;28;20032;-50
2024/01/13 02:49:14;;;;;;;41.63;21.98;;;3.40;94.30;;;;;;5091251;28;20046;-50
2024/01/13 02:51:39;;;;;;;40.13;22.13;;;3.40;94.30;;;;;;5091114;28;20366;-50
2024/01/13 02:54:05;;;;;;;36.95;22.35;;;3.30;94.20;;;;;;5091192;28;20031;-50
2024/01/13 02:56:31;;;;;;;37.65;22.25;;;3.40;94.20;;;;;;5109405;28;20024;-50
2024/01/13 02:58:57;;;;;;;38.55;22.40;;;3.30;94.50;;;;;;5109362;28;20051;-50
2024/01/13 03:01:22;;;;;;;38.65;22.15;;;3.30;94.20;;;;;;5109381;28;20016;-50
2024/01/13 03:03:49;;;;;;;38.63;22.65;;;3.40;94.30;;;;;;5109135;28;20075;-50
2024/01/13 03:06:14;;;;;;;33.65;22.08;;;3.30;94.30;;;;;;5109254;28;20468;-50
2024/01/13 03:08:40;;;;;;;37.80;23.40;;;3.30;94.20;;;;;;5090919;28;20032;-50
2024/01/13 03:11:06;;;;;;;38.58;23.70;;;3.30;94.20;;;;;;5108967;28;20020;-50
2024/01/13 03:13:31;;;;;;;32.50;20.85;;;3.30;94.20;;;;;;5090281;28;20039;-50
2024/01/13 03:15:57;;;;;;;39.03;22.02;;;3.30;94.20;;;;;;5090792;28;20024;-50
2024/01/13 03:18:22;;;;;;;36.60;22.65;;;3.30;94.10;;;;;;5109047;28;20034;-50
2024/01/13 03:20:48;;;;;;;39.60;21.75;;;3.30;94.10;;;;;;5108694;28;20396;-48
2024/01/13 03:23:13;;;;;;;35.20;21.80;;;3.30;94.10;;;;;;5108653;28;20108;-50
2024/01/13 03:25:39;;;;;;;38.35;22.73;;;3.30;94.10;;;;;;5108744;28;20024;-50
2024/01/13 03:28:05;;;;;;;33.80;21.20;;;3.30;94.10;;;;;;5090698;28;20096;-50
2024/01/13 03:30:30;;;;;;;37.50;21.77;;;3.30;94.00;;;;;;5108553;28;20042;-50
2024/01/13 03:32:56;;;;;;;35.72;22.52;;;3.30;94.10;;;;;;5090274;28;20040;-50
2024/01/13 03:35:21;;;;;;;35.00;22.08;;;3.20;94.10;;;;;;5108586;28;20032;-50
2024/01/13 03:37:47;;;;;;;40.08;22.00;;;3.30;94.10;;;;;;5108664;28;20032;-50
2024/01/13 03:40:13;;;;;;;32.95;22.35;;;3.20;94.20;;;;;;5108571;28;20051;-50
2024/01/13 03:42:38;;;;;;;35.22;21.83;;;3.20;94.20;;;;;;5090443;28;20040;-50
2024/01/13 03:45:04;;;;;;;33.15;21.05;;;3.20;94.20;;;;;;5108656;28;20036;-50
2024/01/13 03:47:30;;;;;;;37.92;21.67;;;3.20;94.20;;;;;;5110826;28;20480;-50
2024/01/13 03:49:55;;;;;;;35.70;22.92;;;3.20;94.10;;;;;;5108326;28;20126;-50
2024/01/13 03:52:21;;;;;;;33.83;22.15;;;3.20;94.20;;;;;;5108182;28;20476;-50
2024/01/13 03:54:46;;;;;;;36.33;22.90;;;3.20;94.20;;;;;;5108003;28;20036;-50
2024/01/13 03:57:12;;;;;;;39.00;24.27;;;3.10;94.10;;;;;;5107847;28;20024;-50
2024/01/13 03:59:37;;;;;;;35.92;22.05;;;3.20;94.20;;;;;;5108327;28;20055;-50
2024/01/13 04:02:03;;;;;;;35.33;22.48;;;3.10;94.20;;;;;;5108122;28;20012;-50
2024/01/13 04:04:29;;;;;;;38.72;22.35;;;3.10;94.20;;;;;;5107544;28;20016;-49
2024/01/13 04:06:54;;;;;;;35.67;22.33;;;3.10;94.20;;;;;;5089993;28;20046;-50
2024/01/13 04:09:20;;;;;;;35.95;22.42;;;3.10;94.20;;;;;;5107974;28;20016;-50
2024/01/13 04:11:45;;;;;;;37.15;21.98;;;3.10;94.20;;;;;;5108043;28;20024;-50
2024/01/13 04:14:11;;;;;;;37.22;22.67;;;3.10;94.20;;;;;;5107734;28;20488;-50
2024/01/13 04:16:36;;;;;;;34.60;22.08;;;3.10;94.20;;;;;;5089597;28;20020;-50
2024/01/13 04:19:02;;;;;;;37.15;23.08;;;3.10;94.20;;;;;;5108026;28;20087;-50
2024/01/13 04:21:27;;;;;;;34.50;21.90;;;3.10;94.20;;;;;;5089723;28;20028;-50
2024/01/13 04:23:53;;;;;;;38.72;23.75;;;3.10;94.20;;;;;;5107353;28;20114;-50
2024/01/13 04:26:20;;;;;;;34.08;21.52;;;3.10;94.20;;;;;;5107046;28;20032;-50
2024/01/13 04:28:45;;;;;;;40.95;22.35;;;3.10;94.20;;;;;;5107607;28;20039;-50
2024/01/13 04:31:11;;;;;;;36.42;22.83;;;3.10;94.20;;;;;;5107549;28;20035;-50
2024/01/13 04:33:37;;;;;;;35.58;22.70;;;3.10;94.40;;;;;;5089184;28;20028;-50
2024/01/13 04:36:02;;;;;;;34.45;22.05;;;3.10;94.20;;;;;;5107337;28;20509;-50
2024/01/13 04:38:28;;;;;;;31.27;21.90;;;3.10;94.20;;;;;;5089443;28;20032;-50
2024/01/13 04:40:54;;;;;;;39.53;23.13;;;3.10;94.20;;;;;;5107399;28;20051;-50
2024/01/13 04:43:19;;;;;;;33.47;21.75;;;3.10;94.20;;;;;;5089054;28;20032;-50
2024/01/13 04:45:45;;;;;;;35.88;21.85;;;3.00;94.20;;;;;;5107149;28;20039;-50
2024/01/13 04:48:12;;;;;;;35.67;23.13;;;3.00;94.20;;;;;;5107134;28;20100;-50
2024/01/13 04:50:38;;;;;;;32.10;20.95;;;3.00;94.20;;;;;;5107182;28;20095;-50
2024/01/13 04:53:04;;;;;;;35.60;22.55;;;3.00;94.20;;;;;;5106975;28;20058;-50
2024/01/13 04:55:29;;;;;;;33.25;21.75;;;3.00;94.30;;;;;;5106892;28;20028;-50
2024/01/13 04:57:55;;;;;;;36.47;22.42;;;3.00;94.30;;;;;;5088901;28;20110;-50
2024/01/13 05:00:20;;;;;;;35.78;21.65;;;3.00;94.30;;;;;;5107021;28;20037;-50
2024/01/13 05:02:46;;;;;;;34.88;21.65;;;3.00;94.30;;;;;;5106733;28;20518;-50
2024/01/13 05:05:11;;;;;;;40.25;23.30;;;3.00;94.20;;;;;;5106557;28;20035;-50
2024/01/13 05:07:38;;;;;;;39.13;24.77;;;3.00;94.20;;;;;;5106939;28;20059;-50
2024/01/13 05:10:06;;;;;;;34.03;22.35;;;3.00;94.20;;;;;;5106956;28;20054;-50
2024/01/13 05:12:31;;;;;;;37.33;22.48;;;3.00;94.20;;;;;;5106551;28;20028;-50
2024/01/13 05:14:57;;;;;;;35.65;23.05;;;3.00;94.20;;;;;;5106964;28;20028;-50
2024/01/13 05:17:22;;;;;;;39.40;24.38;;;3.00;94.50;;;;;;5106759;28;20055;-50
2024/01/13 05:19:48;;;;;;;36.50;23.27;;;3.00;94.50;;;;;;5106756;28;20024;-51
2024/01/13 05:22:13;;;;;;;34.78;23.00;;;3.00;94.30;;;;;;5088653;28;20042;-50
2024/01/13 05:24:39;;;;;;;36.10;22.98;;;2.90;94.30;;;;;;5106437;28;20027;-50
2024/01/13 05:27:05;;;;;;;38.55;23.50;;;3.00;94.30;;;;;;5106512;28;20036;-50
2024/01/13 05:29:30;;;;;;;40.47;23.95;;;3.00;94.30;;;;;;5106429;28;20043;-50
2024/01/13 05:31:56;;;;;;;37.65;23.15;;;3.00;94.30;;;;;;5106532;28;20050;-50
2024/01/13 05:34:21;;;;;;;37.58;23.80;;;2.90;94.20;;;;;;5106268;28;20115;-50
2024/01/13 05:36:47;;;;;;;38.15;21.63;;;2.90;94.30;;;;;;5106459;28;20028;-50
2024/01/13 05:39:13;;;;;;;36.72;22.55;;;2.90;94.30;;;;;;5106711;28;20020;-58
2024/01/13 05:41:38;;;;;;;35.55;22.85;;;2.90;94.30;;;;;;5106390;28;20520;-58
2024/01/13 05:44:04;;;;;;;31.50;21.40;;;2.90;94.30;;;;;;5088309;28;20028;-58
2024/01/13 05:46:30;;;;;;;39.38;22.98;;;2.90;94.40;;;;;;5106301;28;20036;-58
2024/01/13 05:48:55;;;;;;;35.22;24.02;;;2.90;94.40;;;;;;5106278;28;20360;-58
2024/01/13 05:51:21;;;;;;;34.85;23.17;;;2.90;94.40;;;;;;5106014;28;20063;-58
2024/01/13 05:53:46;;;;;;;36.38;21.73;;;2.90;94.40;;;;;;5106102;28;20032;-58
2024/01/13 05:56:12;;;;;;;35.03;23.23;;;2.80;94.40;;;;;;5106429;28;20107;-58
2024/01/13 05:58:39;;;;;;;38.03;23.02;;;2.80;94.40;;;;;;5106245;28;20047;-59
2024/01/13 06:01:05;;;;;;;35.65;23.23;;;2.90;94.50;;;;;;5105976;28;20027;-58
2024/01/13 06:03:30;;;;;;;34.60;21.75;;;2.80;94.50;;;;;;5105951;28;20091;-58
2024/01/13 06:05:56;;;;;;;34.00;23.35;;;2.80;94.50;;;;;;5106377;28;20032;-58
2024/01/13 06:08:21;;;;;;;35.65;21.73;;;2.80;94.50;;;;;;5106785;28;20055;-51
2024/01/13 06:10:47;;;;;;;36.05;22.40;;;2.90;94.60;;;;;;5106153;28;20092;-51
2024/01/13 06:13:12;;;;;;;41.08;23.05;;;2.90;94.60;;;;;;5106000;28;20028;-50
2024/01/13 06:15:38;;;;;;;39.38;23.40;;;2.80;94.50;;;;;;5105885;28;20024;-50
2024/01/13 06:18:04;;;;;;;37.60;21.67;;;2.90;94.60;;;;;;5088219;28;20020;-50
2024/01/13 06:20:29;;;;;;;39.67;24.20;;;2.90;94.60;;;;;;5106067;28;20084;-50
2024/01/13 06:22:55;;;;;;;42.00;23.95;;;2.80;94.50;;;;;;5106140;28;20035;-50
2024/01/13 06:25:20;;;;;;;38.75;22.23;;;2.90;94.60;;;;;;5088024;28;20032;-50
2024/01/13 06:27:46;;;;;;;41.08;23.45;;;2.90;94.60;;;;;;5105966;28;20063;-50
2024/01/13 06:30:12;;;;;;;38.42;23.45;;;2.90;94.60;;;;;;5087867;28;20039;-50
2024/01/13 06:32:38;;;;;;;44.05;24.67;;;2.90;94.60;;;;;;5105605;28;20059;-50
2024/01/13 06:35:04;;;;;;;37.42;22.90;;;2.90;94.70;;;;;;5105673;28;20024;-50
2024/01/13 06:37:30;;;;;;;52.80;24.85;;;2.90;94.70;;;;;;5106079;28;20032;-48
2024/01/13 06:39:56;;;;;;;59.63;25.42;;;2.90;94.70;;;;;;5107843;28;20117;-50
2024/01/13 06:42:21;;;;;;;49.75;24.48;;;2.90;94.70;;;;;;5105795;28;20033;-50
2024/01/13 06:44:48;;;;;;;50.53;24.17;;;2.90;94.80;;;;;;5105668;28;20044;-50
2024/01/13 06:47:14;;;;;;;53.10;22.98;;;2.90;94.80;;;;;;5105747;28;20048;-50
2024/01/13 06:49:39;;;;;;;51.20;25.35;;;2.90;94.80;;;;;;5109364;28;20504;-50
2024/01/13 06:52:08;;;;;;;55.05;25.42;;;3.00;94.70;;;;;;5109247;28;20032;-50
2024/01/13 06:54:34;;;;;;;62.58;23.67;;;2.90;94.70;;;;;;5109251;28;20036;-50
2024/01/13 06:57:00;;;;;;;48.30;23.63;;;3.00;94.70;;;;;;5109415;28;20020;-49
2024/01/13 06:59:26;;;;;;;55.33;25.40;;;3.00;94.70;;;;;;5109243;28;20031;-50
2024/01/13 07:01:52;;;;;;;56.10;25.10;;;3.00;94.70;;;;;;5109201;28;20032;-50
2024/01/13 07:04:17;;;;;;;66.82;27.73;;;3.00;94.70;;;;;;5109156;28;20020;-50
2024/01/13 07:06:43;;;;;;;66.95;26.83;;;3.00;94.80;;;;;;5090877;28;20024;-50
2024/01/13 07:09:09;;;;;;;68.63;26.40;;;3.00;94.90;;;;;;5108896;28;20032;-50
2024/01/13 07:11:34;;;;;;;62.92;26.23;;;3.00;94.90;;;;;;5108774;28;20092;-51
2024/01/13 07:14:00;;;;;;;61.50;26.35;;;2.90;95.00;;;;;;5090736;28;20024;-50
2024/01/13 07:16:26;;;;;;;66.93;25.45;;;3.00;95.30;;;;;;5090787;28;20116;-50
2024/01/13 07:18:51;;;;;;;74.25;25.63;;;3.00;95.40;;;;;;5108594;28;20028;-50
2024/01/13 07:21:17;;;;;;;70.85;25.75;;;3.00;95.50;;;;;;5108728;28;20054;-50
2024/01/13 07:23:43;;;;;;;62.72;26.90;;;3.00;95.70;;;;;;5108606;28;20483;-50
2024/01/13 07:26:09;;;;;;;63.55;27.58;;;3.00;95.40;;;;;;5108511;28;20051;-50
2024/01/13 07:28:34;;;;;;;74.68;27.30;;;3.00;95.40;;;;;;5108447;28;20043;-50
2024/01/13 07:31:00;;;;;;;73.78;29.35;;;3.00;95.50;;;;;;5108611;28;20035;-50
2024/01/13 07:33:26;;;;;;;58.80;26.15;;;3.00;95.50;;;;;;5090215;28;20038;-50
2024/01/13 07:35:51;;;;;;;55.75;25.92;;;3.00;95.50;;;;;;5090179;28;20042;-50
2024/01/13 07:38:17;;;;;;;55.53;25.60;;;3.00;95.40;;;;;;5108413;28;20032;-50
2024/01/13 07:40:42;;;;;;;71.20;25.95;;;3.00;95.40;;;;;;5108220;28;20028;-51
2024/01/13 07:43:08;;;;;;;70.30;26.85;;;3.00;95.40;;;;;;5108387;28;20040;-50
2024/01/13 07:45:34;;;;;;;65.45;27.25;;;3.00;95.40;;;;;;5108191;28;20080;-50
2024/01/13 07:48:00;;;;;;;57.63;25.73;;;3.00;95.40;;;;;;5108850;28;20091;-50
2024/01/13 07:50:25;;;;;;;57.10;25.88;;;3.00;95.40;;;;;;5108425;28;20028;-50
2024/01/13 07:52:51;;;;;;;67.28;26.02;;;3.00;95.40;;;;;;5107822;28;20047;-50
2024/01/13 07:55:16;;;;;;;57.13;24.58;;;3.00;95.40;;;;;;5090084;28;20024;-50
2024/01/13 07:57:42;;;;;;;60.13;24.48;;;3.00;95.40;;;;;;5108134;28;20099;-50
2024/01/13 08:00:09;;;;;;;65.20;27.02;;;2.90;95.70;;;;;;5107957;28;20032;-50
2024/01/13 08:02:34;;;;;;;55.90;27.23;;;3.00;95.40;;;;;;5107931;28;20098;-50
2024/01/13 08:05:00;;;;;;;59.88;25.73;;;3.00;95.40;;;;;;5108322;28;20036;-51
2024/01/13 08:07:25;;;;;;;64.78;23.60;;;3.00;95.40;;;;;;5089934;28;20095;-50
2024/01/13 08:09:51;;;;;;;55.45;25.98;;;3.00;95.50;;;;;;5107737;28;20065;-50
2024/01/13 08:12:17;;;;;;;58.20;25.05;;;3.00;95.50;;;;;;5107584;28;20055;-50
2024/01/13 08:14:43;;;;;;;51.60;23.75;;;3.00;95.50;;;;;;5107634;28;20020;-50
2024/01/13 08:17:08;;;;;;;61.40;23.92;;;3.00;95.60;;;;;;5107666;28;20078;-50
2024/01/13 08:19:36;;;;;;;58.78;23.55;;;3.00;95.60;;;;;;5089387;28;20016;-50
2024/01/13 08:22:01;;;;;;;56.28;23.95;;;3.00;95.60;;;;;;5107720;28;20016;-50
2024/01/13 08:24:27;;;;;;;50.13;24.38;;;3.00;95.60;;;;;;5107447;28;20126;-50
2024/01/13 08:26:53;;;;;;;51.47;23.00;;;3.10;95.60;;;;;;5107409;28;20040;-50
2024/01/13 08:29:19;;;;;;;53.63;23.33;;;3.10;95.60;;;;;;5107414;28;20081;-50
2024/01/13 08:31:48;;;;;;;56.13;23.75;;;3.10;95.60;;;;;;5107261;28;20052;-50
2024/01/13 08:34:13;;;;;;;60.15;25.08;;;3.10;95.50;;;;;;5107071;28;20031;-50
2024/01/13 08:36:40;;;;;;;50.03;22.77;;;3.10;95.50;;;;;;5107578;28;20024;-50
2024/01/13 08:39:06;;;;;;;53.65;23.85;;;3.10;95.50;;;;;;5107290;28;20051;-50
2024/01/13 08:41:32;;;;;;;53.65;23.58;;;3.10;95.50;;;;;;5107384;28;20028;-50
2024/01/13 08:43:58;;;;;;;52.20;23.50;;;3.10;95.50;;;;;;5107282;28;20066;-50
2024/01/13 08:46:23;;;;;;;57.42;23.75;;;3.10;95.50;;;;;;5106981;28;20039;-50
2024/01/13 08:48:49;;;;;;;45.05;22.20;;;3.10;95.50;;;;;;5107182;28;20036;-50
2024/01/13 08:51:15;;;;;;;50.25;23.15;;;3.10;95.50;;;;;;5107390;28;20028;-50
2024/01/13 08:53:40;;;;;;;46.63;22.35;;;3.10;95.50;;;;;;5088869;28;20024;-50
2024/01/13 08:56:06;;;;;;;44.72;22.05;;;3.10;95.40;;;;;;5088962;28;20024;-50
2024/01/13 08:58:32;;;;;;;50.45;22.15;;;3.10;95.40;;;;;;5107053;28;20472;-50
2024/01/13 09:00:57;;;;;;;57.83;21.58;;;3.10;95.40;;;;;;5107118;28;20482;-50
2024/01/13 09:03:25;;;;;;;46.13;23.13;;;3.10;95.30;;;;;;5106994;28;20093;-50
2024/01/13 09:05:51;;;;;;;46.40;22.80;;;3.10;95.50;;;;;;5089093;28;20031;-50
2024/01/13 09:08:16;;;;;;;44.22;22.17;;;3.10;95.20;;;;;;5106814;28;20111;-50
2024/01/13 09:10:42;;;;;;;43.92;22.15;;;3.10;95.20;;;;;;5106329;28;20035;-50
2024/01/13 09:13:07;;;;;;;39.72;21.75;;;3.10;95.10;;;;;;5106820;28;20059;-50
2024/01/13 09:15:33;;;;;;;45.13;21.65;;;3.10;95.10;;;;;;5106731;28;20460;-50
2024/01/13 09:18:02;;;;;;;42.35;21.42;;;3.10;95.10;;;;;;5105018;28;20096;-50
2024/01/13 09:20:28;;;;;;;43.08;21.33;;;3.10;95.00;;;;;;5106139;28;20024;-50
2024/01/13 09:22:54;;;;;;;51.53;22.70;;;3.10;95.00;;;;;;5090923;28;20035;-50
2024/01/13 09:25:19;;;;;;;43.88;21.63;;;3.10;95.10;;;;;;5087902;28;20028;-50
2024/01/13 09:27:45;;;;;;;43.60;22.00;;;3.10;95.20;;;;;;5105585;28;20035;-50
2024/01/13 09:30:11;;;;;;;50.58;21.83;;;3.10;95.20;;;;;;5106034;28;20020;-49
2024/01/13 09:32:37;;;;;;;36.17;21.92;;;3.10;95.20;;;;;;5109447;28;20024;-49
2024/01/13 09:35:03;;;;;;;41.45;22.33;;;3.10;95.10;;;;;;5105645;28;20063;-50
2024/01/13 09:37:29;;;;;;;50.30;22.75;;;3.10;95.00;;;;;;5094694;28;20027;-50
2024/01/13 09:39:56;;;;;;;47.63;21.45;;;3.10;95.10;;;;;;5109842;28;20048;-50
2024/01/13 09:42:30;;;;;;;46.88;22.75;;;3.10;95.10;;;;;;5107072;28;20016;-50
2024/01/13 09:44:56;;;;;;;53.20;21.80;;;3.10;95.10;;;;;;5105090;28;20024;-50
2024/01/13 09:47:22;;;;;;;80.20;24.00;;;3.10;95.20;;;;;;5111547;28;20027;-50
2024/01/13 09:49:50;;;;;;;120.20;27.33;;;3.10;95.20;;;;;;5107934;28;20031;-50
2024/01/13 09:52:15;;;;;;;76.60;25.27;;;3.10;95.20;;;;;;5094632;28;20020;-50
2024/01/13 09:54:41;;;;;;;81.68;25.48;;;3.10;95.40;;;;;;5105649;28;20031;-51
2024/01/13 09:57:06;;;;;;;70.47;23.55;;;3.10;95.40;;;;;;5087369;28;20055;-50
2024/01/13 09:59:32;;;;;;;67.53;24.20;;;3.10;95.50;;;;;;5103460;28;20024;-50
2024/01/13 10:01:58;;;;;;;64.10;24.27;;;3.20;95.50;;;;;;5087368;28;20073;-50
2024/01/13 10:04:23;;;;;;;71.13;25.23;;;3.20;95.40;;;;;;5105340;28;20039;-50
2024/01/13 10:06:49;;;;;;;71.63;23.83;;;3.20;95.40;;;;;;5105441;28;20035;-50
2024/01/13 10:09:15;;;;;;;103.15;26.48;;;3.20;95.40;;;;;;5090901;28;20028;-50
2024/01/13 10:11:40;;;;;;;69.68;23.48;;;3.20;95.40;;;;;;5105789;28;20035;-50
2024/01/13 10:14:12;;;;;;;70.75;22.60;;;3.20;95.60;;;;;;5091863;28;20040;-49
2024/01/13 10:16:37;;;;;;;77.18;24.42;;;3.20;95.50;;;;;;5105632;28;20042;-50
2024/01/13 10:19:07;;;;;;;76.97;24.23;;;3.20;95.50;;;;;;5093311;28;20020;-50
2024/01/13 10:21:33;;;;;;;93.85;26.65;;;3.30;95.60;;;;;;5105198;28;20024;-49
2024/01/13 10:24:00;;;;;;;98.00;26.58;;;3.30;95.60;;;;;;5109940;28;20028;-50
2024/01/13 10:26:26;;;;;;;88.60;24.65;;;3.30;95.60;;;;;;5116716;28;20028;-50
2024/01/13 10:28:52;;;;;;;98.95;25.42;;;3.30;95.50;;;;;;5109353;28;20051;-50
2024/01/13 10:31:18;;;;;;;109.32;24.40;;;3.30;95.40;;;;;;5109445;28;20054;-50
2024/01/13 10:33:47;;;;;;;100.03;25.23;;;3.40;95.40;;;;;;5108754;28;20041;-50
2024/01/13 10:36:14;;;;;;;89.63;25.88;;;3.40;95.40;;;;;;5089135;28;20036;-50
2024/01/13 10:38:43;;;;;;;99.60;24.80;;;3.40;95.30;;;;;;5104743;28;20020;-50
2024/01/13 10:41:09;;;;;;;80.55;23.20;;;3.40;95.30;;;;;;5108664;28;20040;-50
2024/01/13 10:43:39;;;;;;;88.60;25.00;;;3.40;95.30;;;;;;5108882;28;20024;-50
2024/01/13 10:46:17;;;;;;;84.70;23.60;;;3.40;95.30;;;;;;5127808;28;20093;-50
2024/01/13 10:48:43;;;;;;;95.47;24.98;;;3.40;95.30;;;;;;5096878;28;20057;-50
2024/01/13 10:51:33;;;;;;;81.40;23.92;;;3.40;95.30;;;;;;5127653;28;20487;-50
2024/01/13 10:54:00;;;;;;;82.75;23.13;;;3.40;95.30;;;;;;5106606;28;20036;-50
2024/01/13 10:56:26;;;;;;;67.80;23.30;;;3.40;95.30;;;;;;5129114;28;20028;-50
2024/01/13 10:58:53;;;;;;;94.45;23.63;;;3.40;95.30;;;;;;5098475;28;20020;-50
2024/01/13 11:01:19;;;;;;;74.22;23.70;;;3.40;95.10;;;;;;5108841;28;20040;-49
2024/01/13 11:03:45;;;;;;;81.95;24.08;;;3.40;95.10;;;;;;5107256;28;20525;-50
2024/01/13 11:06:11;;;;;;;68.80;22.73;;;3.40;95.10;;;;;;5110676;28;20083;-50
2024/01/13 11:08:36;;;;;;;84.97;22.95;;;3.40;95.10;;;;;;5121591;28;20020;-50
2024/01/13 11:11:02;;;;;;;76.72;23.27;;;3.50;95.10;;;;;;5110237;28;20102;-50
2024/01/13 11:13:31;;;;;;;96.38;24.98;;;3.50;95.20;;;;;;5090039;28;20047;-50
2024/01/13 11:16:04;;;;;;;69.88;23.60;;;3.50;95.10;;;;;;5095406;28;20028;-50
2024/01/13 11:18:35;;;;;;;88.72;24.02;;;3.50;95.10;;;;;;5103299;28;20043;-50
2024/01/13 11:21:04;;;;;;;86.15;23.65;;;3.50;95.00;;;;;;5107411;28;20027;-59
2024/01/13 11:23:46;;;;;;;96.43;23.65;;;3.60;95.00;;;;;;5107686;28;20059;-58
2024/01/13 11:26:18;;;;;;;79.38;22.40;;;3.50;94.90;;;;;;5112699;28;20025;-58
2024/01/13 11:28:51;;;;;;;103.22;23.73;;;3.50;94.80;;;;;;5106317;28;20034;-58
2024/01/13 11:31:29;;;;;;;86.95;22.67;;;3.50;94.80;;;;;;5108731;28;20038;-58
2024/01/13 11:33:55;;;;;;;72.90;22.98;;;3.50;94.90;;;;;;5103735;28;20028;-58
2024/01/13 11:36:21;;;;;;;77.22;22.83;;;3.50;94.90;;;;;;5106467;28;20105;-57
2024/01/13 11:38:46;;;;;;;61.92;20.42;;;3.50;94.90;;;;;;5107453;28;20114;-59
2024/01/13 11:41:12;;;;;;;60.90;19.33;;;3.50;94.80;;;;;;5116745;28;20063;-59
2024/01/13 11:43:39;;;;;;;70.28;19.92;;;3.50;94.90;;;;;;5089436;28;20020;-58
2024/01/13 11:46:12;;;;;;;80.00;20.70;;;3.60;94.60;;;;;;5108169;28;20039;-59
2024/01/13 11:48:41;;;;;;;86.72;20.27;;;3.60;94.60;;;;;;5110005;28;20045;-58
2024/01/13 11:51:12;;;;;;;64.63;20.60;;;3.60;94.60;;;;;;5110627;28;20032;-58
2024/01/13 11:53:42;;;;;;;55.92;20.27;;;3.60;94.60;;;;;;5107901;28;20043;-59
2024/01/13 11:56:09;;;;;;;51.15;19.55;;;3.60;94.50;;;;;;5107721;28;20057;-58
2024/01/13 11:58:36;;;;;;;71.95;20.33;;;3.60;94.50;;;;;;5106328;28;20020;-59
2024/01/13 12:01:02;;;;;;;140.38;25.73;;;3.60;94.50;;;;;;5107479;28;20562;-58
2024/01/13 12:03:27;;;;;;;61.63;20.33;;;3.60;94.70;;;;;;5108005;28;20024;-59
2024/01/13 12:05:54;;;;;;;136.15;25.85;;;3.60;94.80;;;;;;5107939;28;20055;-59
2024/01/13 12:08:19;;;;;;;77.97;22.13;;;3.80;94.90;;;;;;5107466;28;20032;-58
2024/01/13 12:10:46;;;;;;;74.25;22.13;;;3.60;94.80;;;;;;5131013;27;20031;-58
2024/01/13 12:13:18;;;;;;;73.93;20.58;;;3.60;94.80;;;;;;5107380;28;20563;-59
2024/01/13 12:15:47;;;;;;;63.63;20.65;;;3.70;94.90;;;;;;5104227;28;20028;-58
2024/01/13 12:18:22;;;;;;;66.35;18.52;;;3.70;94.90;;;;;;5087198;28;20024;-58
2024/01/13 12:20:50;;;;;;;53.03;18.10;;;3.70;95.00;;;;;;5106365;28;20028;-58
2024/01/13 12:23:16;;;;;;;79.30;19.55;;;3.70;94.90;;;;;;5105383;28;20020;-57
2024/01/13 12:25:42;;;;;;;49.22;18.40;;;3.70;94.90;;;;;;5094023;28;20024;-58
2024/01/13 12:28:08;;;;;;;53.97;19.35;;;3.70;94.80;;;;;;5106677;28;20553;-58
2024/01/13 12:30:37;;;;;;;66.93;19.73;;;3.70;94.70;;;;;;5106344;28;20032;-59